sensor_id;sensor_type;location;lat;lon;timestamp;pressure;altitude;pressure_sealevel;temperature;humidity
63019;BME280;49105;46.046;10.760;2023-02-10T00:00:02;97399.81;;;-3.67;53.95
63019;BME280;49105;46.046;10.760;2023-02-10T00:02:28;97398.63;;;-3.73;54.49
63019;BME280;49105;46.046;10.760;2023-02-10T00:04:54;97394.09;;;-3.71;54.25
63019;BME280;49105;46.046;10.760;2023-02-10T00:07:20;97395.06;;;-3.72;54.56
63019;BME280;49105;46.046;10.760;2023-02-10T00:09:45;97398.63;;;-3.73;54.23
63019;BME280;49105;46.046;10.760;2023-02-10T00:12:11;97393.16;;;-3.80;53.99
63019;BME280;49105;46.046;10.760;2023-02-10T00:14:37;97397.69;;;-3.91;54.68
63019;BME280;49105;46.046;10.760;2023-02-10T00:17:03;97409.13;;;-3.94;54.90
63019;BME280;49105;46.046;10.760;2023-02-10T00:19:30;97405.88;;;-3.86;54.50
63019;BME280;49105;46.046;10.760;2023-02-10T00:21:59;97403.28;;;-3.86;54.27
63019;BME280;49105;46.046;10.760;2023-02-10T00:24:24;97401.50;;;-3.86;54.55
63019;BME280;49105;46.046;10.760;2023-02-10T00:26:50;97395.50;;;-3.86;54.54
63019;BME280;49105;46.046;10.760;2023-02-10T00:29:16;97395.50;;;-3.86;54.54
63019;BME280;49105;46.046;10.760;2023-02-10T00:31:42;97397.00;;;-3.84;54.50
63019;BME280;49105;46.046;10.760;2023-02-10T00:34:11;97399.34;;;-3.90;54.97
63019;BME280;49105;46.046;10.760;2023-02-10T00:36:37;97394.97;;;-4.00;55.15
63019;BME280;49105;46.046;10.760;2023-02-10T00:39:02;97400.97;;;-4.09;55.07
63019;BME280;49105;46.046;10.760;2023-02-10T00:41:28;97393.34;;;-4.10;55.17
63019;BME280;49105;46.046;10.760;2023-02-10T00:43:53;97397.31;;;-4.06;55.04
63019;BME280;49105;46.046;10.760;2023-02-10T00:46:20;97395.25;;;-4.03;54.98
63019;BME280;49105;46.046;10.760;2023-02-10T00:48:46;97401.38;;;-4.04;54.91
63019;BME280;49105;46.046;10.760;2023-02-10T00:51:13;97399.22;;;-3.98;54.34
63019;BME280;49105;46.046;10.760;2023-02-10T00:53:39;97398.91;;;-3.95;54.78
63019;BME280;49105;46.046;10.760;2023-02-10T00:56:05;97395.91;;;-3.91;54.61
63019;BME280;49105;46.046;10.760;2023-02-10T00:58:31;97391.56;;;-3.90;54.32
63019;BME280;49105;46.046;10.760;2023-02-10T01:00:56;97399.75;;;-3.95;54.89
63019;BME280;49105;46.046;10.760;2023-02-10T01:03:22;97393.22;;;-3.99;54.73
63019;BME280;49105;46.046;10.760;2023-02-10T01:05:48;97392.25;;;-4.08;55.15
63019;BME280;49105;46.046;10.760;2023-02-10T01:08:14;97392.81;;;-4.14;54.80
63019;BME280;49105;46.046;10.760;2023-02-10T01:10:40;97389.41;;;-4.24;55.22
63019;BME280;49105;46.046;10.760;2023-02-10T01:13:10;97390.38;;;-4.25;55.45
63019;BME280;49105;46.046;10.760;2023-02-10T01:15:36;97385.47;;;-4.18;55.29
63019;BME280;49105;46.046;10.760;2023-02-10T01:18:05;97383.31;;;-4.23;55.51
63019;BME280;49105;46.046;10.760;2023-02-10T01:20:31;97381.38;;;-4.21;55.13
63019;BME280;49105;46.046;10.760;2023-02-10T01:22:56;97384.66;;;-4.29;55.31
63019;BME280;49105;46.046;10.760;2023-02-10T01:25:21;97385.19;;;-4.35;55.43
63019;BME280;49105;46.046;10.760;2023-02-10T01:27:47;97384.09;;;-4.32;55.52
63019;BME280;49105;46.046;10.760;2023-02-10T01:30:12;97379.06;;;-4.24;55.29
63019;BME280;49105;46.046;10.760;2023-02-10T01:32:38;97375.66;;;-4.25;55.33
63019;BME280;49105;46.046;10.760;2023-02-10T01:35:04;97380.03;;;-4.25;55.51
63019;BME280;49105;46.046;10.760;2023-02-10T01:37:30;97378.94;;;-4.32;55.61
63019;BME280;49105;46.046;10.760;2023-02-10T01:39:55;97382.06;;;-4.38;55.61
63019;BME280;49105;46.046;10.760;2023-02-10T01:42:20;97378.78;;;-4.40;55.94
63019;BME280;49105;46.046;10.760;2023-02-10T01:47:12;97371.19;;;-4.42;55.48
63019;BME280;49105;46.046;10.760;2023-02-10T01:49:47;97369.69;;;-4.44;55.91
63019;BME280;49105;46.046;10.760;2023-02-10T01:52:16;97363.69;;;-4.45;56.17
63019;BME280;49105;46.046;10.760;2023-02-10T01:54:46;97361.09;;;-4.45;56.32
63019;BME280;49105;46.046;10.760;2023-02-10T01:57:13;97355.28;;;-4.47;55.84
63019;BME280;49105;46.046;10.760;2023-02-10T01:59:40;97351.19;;;-4.50;56.12
63019;BME280;49105;46.046;10.760;2023-02-10T02:02:08;97346.03;;;-4.50;55.99
63019;BME280;49105;46.046;10.760;2023-02-10T02:04:41;97345.50;;;-4.43;55.63
63019;BME280;49105;46.046;10.760;2023-02-10T02:07:07;97350.66;;;-4.43;56.05
63019;BME280;49105;46.046;10.760;2023-02-10T02:09:33;97349.84;;;-4.34;55.30
63019;BME280;49105;46.046;10.760;2023-02-10T02:17:43;97337.31;;;-4.29;55.29
63019;BME280;49105;46.046;10.760;2023-02-10T02:20:51;97346.44;;;-4.35;55.43
63019;BME280;49105;46.046;10.760;2023-02-10T02:34:07;97336.25;;;-4.56;55.64
63019;BME280;49105;46.046;10.760;2023-02-10T02:36:59;97341.97;;;-4.52;55.84
63019;BME280;49105;46.046;10.760;2023-02-10T02:39:28;97336.25;;;-4.56;56.04
63019;BME280;49105;46.046;10.760;2023-02-10T02:42:23;97350.34;;;-4.79;55.84
63019;BME280;49105;46.046;10.760;2023-02-10T02:45:01;97352.78;;;-4.87;56.97
63019;BME280;49105;46.046;10.760;2023-02-10T02:47:37;97352.69;;;-4.76;56.52
63019;BME280;49105;46.046;10.760;2023-02-10T02:50:23;97353.75;;;-4.79;56.28
63019;BME280;49105;46.046;10.760;2023-02-10T02:53:04;97356.22;;;-4.77;56.05
63019;BME280;49105;46.046;10.760;2023-02-10T02:56:03;97359.88;;;-4.89;56.34
63019;BME280;49105;46.046;10.760;2023-02-10T03:01:09;97365.69;;;-4.97;56.63
63019;BME280;49105;46.046;10.760;2023-02-10T03:03:37;97365.00;;;-4.99;57.08
63019;BME280;49105;46.046;10.760;2023-02-10T03:06:03;97367.47;;;-4.97;56.74
63019;BME280;49105;46.046;10.760;2023-02-10T03:08:31;97368.28;;;-4.97;56.68
63019;BME280;49105;46.046;10.760;2023-02-10T03:10:58;97362.97;;;-4.95;56.57
63019;BME280;49105;46.046;10.760;2023-02-10T03:13:23;97366.25;;;-4.93;57.20
63019;BME280;49105;46.046;10.760;2023-02-10T03:15:48;97366.75;;;-5.00;57.36
63019;BME280;49105;46.046;10.760;2023-02-10T03:18:15;97361.75;;;-5.01;56.75
63019;BME280;49105;46.046;10.760;2023-02-10T03:20:40;97357.94;;;-4.97;56.98
63019;BME280;49105;46.046;10.760;2023-02-10T03:23:06;97355.94;;;-4.93;57.18
63019;BME280;49105;46.046;10.760;2023-02-10T03:25:32;97353.84;;;-5.00;57.22
63019;BME280;49105;46.046;10.760;2023-02-10T03:27:57;97353.84;;;-5.00;57.13
63019;BME280;49105;46.046;10.760;2023-02-10T03:30:24;97342.31;;;-4.95;56.74
63019;BME280;49105;46.046;10.760;2023-02-10T03:32:49;97344.63;;;-4.92;56.67
63019;BME280;49105;46.046;10.760;2023-02-10T03:35:17;97342.88;;;-4.92;56.57
63019;BME280;49105;46.046;10.760;2023-02-10T03:37:42;97342.06;;;-4.92;56.67
63019;BME280;49105;46.046;10.760;2023-02-10T03:40:08;97339.22;;;-4.89;56.89
63019;BME280;49105;46.046;10.760;2023-02-10T03:42:33;97351.03;;;-4.87;57.30
63019;BME280;49105;46.046;10.760;2023-02-10T03:44:59;97353.34;;;-4.84;56.39
63019;BME280;49105;46.046;10.760;2023-02-10T03:47:24;97350.34;;;-4.89;56.29
63019;BME280;49105;46.046;10.760;2023-02-10T03:49:49;97352.94;;;-4.89;56.18
63019;BME280;49105;46.046;10.760;2023-02-10T03:52:15;97351.97;;;-4.88;56.85
63019;BME280;49105;46.046;10.760;2023-02-10T03:54:40;97350.63;;;-4.92;56.24
63019;BME280;49105;46.046;10.760;2023-02-10T03:57:06;97357.41;;;-4.91;56.22
63019;BME280;49105;46.046;10.760;2023-02-10T03:59:32;97358.47;;;-5.03;56.40
63019;BME280;49105;46.046;10.760;2023-02-10T04:01:57;97366.44;;;-5.16;56.66
63019;BME280;49105;46.046;10.760;2023-02-10T04:04:22;97368.75;;;-5.22;57.82
63019;BME280;49105;46.046;10.760;2023-02-10T04:06:48;97367.25;;;-5.25;56.57
63019;BME280;49105;46.046;10.760;2023-02-10T04:09:13;97378.53;;;-5.26;57.13
63019;BME280;49105;46.046;10.760;2023-02-10T04:11:39;97368.38;;;-5.18;57.34
63019;BME280;49105;46.046;10.760;2023-02-10T04:14:04;97373.78;;;-5.11;57.13
63019;BME280;49105;46.046;10.760;2023-02-10T04:16:29;97376.44;;;-5.02;56.89
63019;BME280;49105;46.046;10.760;2023-02-10T04:18:57;97372.34;;;-4.94;56.96
63019;BME280;49105;46.046;10.760;2023-02-10T04:21:22;97369.09;;;-4.96;56.21
63019;BME280;49105;46.046;10.760;2023-02-10T04:23:49;97369.06;;;-5.06;56.73
63019;BME280;49105;46.046;10.760;2023-02-10T04:26:15;97370.97;;;-5.08;57.24
63019;BME280;49105;46.046;10.760;2023-02-10T04:28:40;97367.72;;;-5.01;57.15
63019;BME280;49105;46.046;10.760;2023-02-10T04:31:06;97368.84;;;-4.93;56.26
63019;BME280;49105;46.046;10.760;2023-02-10T04:33:32;97372.09;;;-4.91;56.23
63019;BME280;49105;46.046;10.760;2023-02-10T04:35:58;97372.03;;;-5.11;56.91
63019;BME280;49105;46.046;10.760;2023-02-10T04:38:24;97369.44;;;-5.20;57.59
63019;BME280;49105;46.046;10.760;2023-02-10T04:40:49;97359.09;;;-5.20;56.89
63019;BME280;49105;46.046;10.760;2023-02-10T04:43:15;97367.97;;;-5.13;57.22
63019;BME280;49105;46.046;10.760;2023-02-10T04:45:41;97357.09;;;-5.17;57.44
63019;BME280;49105;46.046;10.760;2023-02-10T04:48:06;97350.81;;;-5.24;57.60
63019;BME280;49105;46.046;10.760;2023-02-10T04:50:32;97353.22;;;-5.32;57.49
63019;BME280;49105;46.046;10.760;2023-02-10T04:52:58;97358.38;;;-5.42;57.90
63019;BME280;49105;46.046;10.760;2023-02-10T04:55:23;97357.25;;;-5.49;57.95
63019;BME280;49105;46.046;10.760;2023-02-10T04:57:49;97354.66;;;-5.49;57.84
63019;BME280;49105;46.046;10.760;2023-02-10T05:00:15;97358.47;;;-5.43;57.03
63019;BME280;49105;46.046;10.760;2023-02-10T05:02:40;97367.59;;;-5.39;57.41
63019;BME280;49105;46.046;10.760;2023-02-10T05:05:06;97358.94;;;-5.38;57.09
63019;BME280;49105;46.046;10.760;2023-02-10T05:07:31;97360.28;;;-5.34;57.87
63019;BME280;49105;46.046;10.760;2023-02-10T05:09:57;97364.84;;;-5.47;58.11
63019;BME280;49105;46.046;10.760;2023-02-10T05:12:22;97357.66;;;-5.44;57.91
63019;BME280;49105;46.046;10.760;2023-02-10T05:14:48;97362.72;;;-5.33;57.94
63019;BME280;49105;46.046;10.760;2023-02-10T05:17:13;97369.00;;;-5.26;56.95
63019;BME280;49105;46.046;10.760;2023-02-10T05:19:38;97377.25;;;-5.41;57.04
63019;BME280;49105;46.046;10.760;2023-02-10T05:22:04;97377.75;;;-5.47;57.90
63019;BME280;49105;46.046;10.760;2023-02-10T05:24:30;97370.28;;;-5.51;58.50
63019;BME280;49105;46.046;10.760;2023-02-10T05:26:55;97367.13;;;-5.54;58.37
63019;BME280;49105;46.046;10.760;2023-02-10T05:29:21;97371.78;;;-5.48;57.51
63019;BME280;49105;46.046;10.760;2023-02-10T05:31:46;97369.19;;;-5.48;57.28
63019;BME280;49105;46.046;10.760;2023-02-10T05:34:11;97371.88;;;-5.59;57.74
63019;BME280;49105;46.046;10.760;2023-02-10T05:36:37;97379.72;;;-5.61;58.51
63019;BME280;49105;46.046;10.760;2023-02-10T05:39:02;97379.72;;;-5.61;58.35
63019;BME280;49105;46.046;10.760;2023-02-10T05:41:46;97378.91;;;-5.61;57.58
63019;BME280;49105;46.046;10.760;2023-02-10T05:44:12;97372.13;;;-5.62;57.50
63019;BME280;49105;46.046;10.760;2023-02-10T05:46:37;97375.66;;;-5.63;57.51
63019;BME280;49105;46.046;10.760;2023-02-10T05:49:02;97367.78;;;-5.62;58.41
63019;BME280;49105;46.046;10.760;2023-02-10T05:51:28;97372.00;;;-5.61;58.74
63019;BME280;49105;46.046;10.760;2023-02-10T05:53:53;97377.66;;;-5.67;58.30
63019;BME280;49105;46.046;10.760;2023-02-10T05:56:19;97379.53;;;-5.69;57.97
63019;BME280;49105;46.046;10.760;2023-02-10T05:58:44;97386.91;;;-5.64;57.68
63019;BME280;49105;46.046;10.760;2023-02-10T06:01:10;97388.28;;;-5.60;58.05
63019;BME280;49105;46.046;10.760;2023-02-10T06:03:35;97396.59;;;-5.57;58.68
63019;BME280;49105;46.046;10.760;2023-02-10T06:06:01;97392.38;;;-5.58;57.90
63019;BME280;49105;46.046;10.760;2023-02-10T06:08:27;97396.59;;;-5.57;58.56
63019;BME280;49105;46.046;10.760;2023-02-10T06:10:53;97398.78;;;-5.52;57.64
63019;BME280;49105;46.046;10.760;2023-02-10T06:13:18;97404.22;;;-5.55;57.72
63019;BME280;49105;46.046;10.760;2023-02-10T06:15:44;97408.63;;;-5.67;58.48
63019;BME280;49105;46.046;10.760;2023-02-10T06:18:10;97411.41;;;-5.80;58.70
63019;BME280;49105;46.046;10.760;2023-02-10T06:20:35;97415.03;;;-5.82;58.71
63019;BME280;49105;46.046;10.760;2023-02-10T06:23:00;97416.22;;;-5.86;58.47
63019;BME280;49105;46.046;10.760;2023-02-10T06:25:26;97417.19;;;-5.87;58.34
63019;BME280;49105;46.046;10.760;2023-02-10T06:27:51;97426.53;;;-5.86;59.26
63019;BME280;49105;46.046;10.760;2023-02-10T06:30:17;97416.09;;;-5.85;58.30
63019;BME280;49105;46.046;10.760;2023-02-10T06:32:42;97415.22;;;-5.74;58.40
63019;BME280;49105;46.046;10.760;2023-02-10T06:35:08;97419.84;;;-5.68;58.17
63019;BME280;49105;46.046;10.760;2023-02-10T06:37:34;97419.94;;;-5.79;57.94
63019;BME280;49105;46.046;10.760;2023-02-10T06:40:02;97431.66;;;-5.75;57.91
63019;BME280;49105;46.046;10.760;2023-02-10T06:42:27;97417.38;;;-5.79;58.02
63019;BME280;49105;46.046;10.760;2023-02-10T06:44:53;97428.00;;;-5.93;59.52
63019;BME280;49105;46.046;10.760;2023-02-10T06:47:18;97435.66;;;-5.92;59.42
63019;BME280;49105;46.046;10.760;2023-02-10T06:49:43;97436.34;;;-5.80;58.84
63019;BME280;49105;46.046;10.760;2023-02-10T06:52:09;97437.47;;;-5.73;58.11
63019;BME280;49105;46.046;10.760;2023-02-10T06:54:34;97430.69;;;-5.74;58.02
63019;BME280;49105;46.046;10.760;2023-02-10T06:56:59;97440.63;;;-5.69;58.57
63019;BME280;49105;46.046;10.760;2023-02-10T06:59:25;97439.44;;;-5.65;58.35
63019;BME280;49105;46.046;10.760;2023-02-10T07:01:50;97438.09;;;-5.60;59.09
63019;BME280;49105;46.046;10.760;2023-02-10T07:04:16;97443.56;;;-5.53;57.95
63019;BME280;49105;46.046;10.760;2023-02-10T07:06:41;97442.06;;;-5.56;57.72
63019;BME280;49105;46.046;10.760;2023-02-10T07:09:07;97452.66;;;-5.59;57.89
63019;BME280;49105;46.046;10.760;2023-02-10T07:11:33;97453.09;;;-5.54;59.09
63019;BME280;49105;46.046;10.760;2023-02-10T07:13:58;97452.13;;;-5.53;58.55
63019;BME280;49105;46.046;10.760;2023-02-10T07:16:24;97457.38;;;-5.43;58.24
63019;BME280;49105;46.046;10.760;2023-02-10T07:18:49;97464.25;;;-5.43;57.52
63019;BME280;49105;46.046;10.760;2023-02-10T07:21:15;97457.72;;;-5.47;58.49
63019;BME280;49105;46.046;10.760;2023-02-10T07:23:41;97469.38;;;-5.53;58.64
63019;BME280;49105;46.046;10.760;2023-02-10T07:26:06;97462.97;;;-5.59;58.19
63019;BME280;49105;46.046;10.760;2023-02-10T07:28:33;97472.34;;;-5.58;58.57
63019;BME280;49105;46.046;10.760;2023-02-10T07:30:59;97465.78;;;-5.62;58.67
63019;BME280;49105;46.046;10.760;2023-02-10T07:33:24;97459.69;;;-5.61;58.76
63019;BME280;49105;46.046;10.760;2023-02-10T07:35:50;97469.06;;;-5.60;58.93
63019;BME280;49105;46.046;10.760;2023-02-10T07:38:15;97456.88;;;-5.58;59.03
63019;BME280;49105;46.046;10.760;2023-02-10T07:40:40;97463.25;;;-5.52;58.60
63019;BME280;49105;46.046;10.760;2023-02-10T07:43:06;97471.09;;;-5.42;58.50
63019;BME280;49105;46.046;10.760;2023-02-10T07:45:31;97473.13;;;-5.36;58.00
63019;BME280;49105;46.046;10.760;2023-02-10T07:47:58;97459.75;;;-5.30;58.22
63019;BME280;49105;46.046;10.760;2023-02-10T07:50:24;97459.66;;;-5.40;58.46
63019;BME280;49105;46.046;10.760;2023-02-10T07:52:49;97462.38;;;-5.41;58.81
63019;BME280;49105;46.046;10.760;2023-02-10T07:55:15;97461.31;;;-5.39;58.76
63019;BME280;49105;46.046;10.760;2023-02-10T07:57:40;97450.44;;;-5.42;58.15
63019;BME280;49105;46.046;10.760;2023-02-10T08:00:08;97459.69;;;-5.61;59.13
63019;BME280;49105;46.046;10.760;2023-02-10T08:02:34;97457.63;;;-5.67;58.60
63019;BME280;49105;46.046;10.760;2023-02-10T08:04:59;97459.81;;;-5.62;59.47
63019;BME280;49105;46.046;10.760;2023-02-10T08:07:25;97461.78;;;-5.55;59.76
63019;BME280;49105;46.046;10.760;2023-02-10T08:09:50;97452.84;;;-5.51;58.41
63019;BME280;49105;46.046;10.760;2023-02-10T08:12:16;97463.03;;;-5.49;58.33
63019;BME280;49105;46.046;10.760;2023-02-10T08:14:41;97456.78;;;-5.46;59.47
63019;BME280;49105;46.046;10.760;2023-02-10T08:17:06;97461.44;;;-5.40;58.72
63019;BME280;49105;46.046;10.760;2023-02-10T08:19:32;97470.56;;;-5.36;58.30
63019;BME280;49105;46.046;10.760;2023-02-10T08:21:57;97468.41;;;-5.31;58.78
63019;BME280;49105;46.046;10.760;2023-02-10T08:24:22;97467.91;;;-5.25;58.38
63019;BME280;49105;46.046;10.760;2023-02-10T08:26:48;97466.44;;;-5.18;58.85
63019;BME280;49105;46.046;10.760;2023-02-10T08:29:13;97471.78;;;-5.10;58.95
63019;BME280;49105;46.046;10.760;2023-02-10T08:31:39;97467.69;;;-5.12;58.26
63019;BME280;49105;46.046;10.760;2023-02-10T08:34:05;97471.63;;;-5.18;59.09
63019;BME280;49105;46.046;10.760;2023-02-10T08:36:30;97464.13;;;-5.21;59.46
63019;BME280;49105;46.046;10.760;2023-02-10T08:38:56;97459.91;;;-5.22;59.25
63019;BME280;49105;46.046;10.760;2023-02-10T08:41:22;97457.63;;;-5.15;59.10
63019;BME280;49105;46.046;10.760;2023-02-10T08:43:47;97460.09;;;-5.14;58.91
63019;BME280;49105;46.046;10.760;2023-02-10T08:46:13;97450.19;;;-5.09;58.47
63019;BME280;49105;46.046;10.760;2023-02-10T08:48:38;97461.75;;;-5.03;58.47
63019;BME280;49105;46.046;10.760;2023-02-10T08:51:08;97464.88;;;-5.00;58.62
63019;BME280;49105;46.046;10.760;2023-02-10T08:53:34;97467.31;;;-4.98;59.01
63019;BME280;49105;46.046;10.760;2023-02-10T08:56:07;97471.78;;;-5.10;59.17
63019;BME280;49105;46.046;10.760;2023-02-10T08:58:33;97472.28;;;-5.16;59.01
63019;BME280;49105;46.046;10.760;2023-02-10T09:00:58;97479.63;;;-5.11;58.91
63019;BME280;49105;46.046;10.760;2023-02-10T09:03:24;97476.56;;;-5.05;59.27
63019;BME280;49105;46.046;10.760;2023-02-10T09:05:49;97474.00;;;-4.95;59.30
63019;BME280;49105;46.046;10.760;2023-02-10T09:08:16;97478.28;;;-4.75;58.46
63019;BME280;49105;46.046;10.760;2023-02-10T09:10:43;97479.03;;;-4.54;58.63
63019;BME280;49105;46.046;10.760;2023-02-10T09:13:09;97473.63;;;-4.31;58.72
63019;BME280;49105;46.046;10.760;2023-02-10T09:15:39;97475.00;;;-4.08;58.03
63019;BME280;49105;46.046;10.760;2023-02-10T09:18:06;97469.00;;;-3.79;58.00
63019;BME280;49105;46.046;10.760;2023-02-10T09:20:31;97470.63;;;-3.59;57.52
63019;BME280;49105;46.046;10.760;2023-02-10T09:22:57;97466.66;;;-3.43;57.83
63019;BME280;49105;46.046;10.760;2023-02-10T09:25:22;97471.56;;;-3.40;58.17
63019;BME280;49105;46.046;10.760;2023-02-10T09:27:48;97461.31;;;-3.32;57.44
63019;BME280;49105;46.046;10.760;2023-02-10T09:30:13;97462.38;;;-3.25;58.05
63019;BME280;49105;46.046;10.760;2023-02-10T09:32:39;97457.19;;;-3.15;56.92
63019;BME280;49105;46.046;10.760;2023-02-10T09:35:04;97466.94;;;-3.00;57.40
63019;BME280;49105;46.046;10.760;2023-02-10T09:37:30;97466.88;;;-2.90;56.80
63019;BME280;49105;46.046;10.760;2023-02-10T09:39:55;97469.16;;;-2.77;57.36
63019;BME280;49105;46.046;10.760;2023-02-10T09:45:19;97467.81;;;-2.54;55.79
63019;BME280;49105;46.046;10.760;2023-02-10T09:47:52;97465.03;;;-2.42;55.50
63019;BME280;49105;46.046;10.760;2023-02-10T09:53:25;97456.44;;;-2.25;55.26
63019;BME280;49105;46.046;10.760;2023-02-10T09:58:32;97457.66;;;-2.02;55.44
63019;BME280;49105;46.046;10.760;2023-02-10T10:01:05;97451.69;;;-1.94;54.86
63019;BME280;49105;46.046;10.760;2023-02-10T10:03:41;97453.81;;;-1.89;54.55
63019;BME280;49105;46.046;10.760;2023-02-10T10:06:28;97449.22;;;-1.78;54.34
63019;BME280;49105;46.046;10.760;2023-02-10T10:11:51;97447.03;;;-1.46;54.18
63019;BME280;49105;46.046;10.760;2023-02-10T10:14:21;97445.50;;;-1.31;53.37
63019;BME280;49105;46.046;10.760;2023-02-10T10:25:30;97451.19;;;-1.02;53.09
63019;BME280;49105;46.046;10.760;2023-02-10T10:31:14;97447.91;;;-1.04;53.37
63019;BME280;49105;46.046;10.760;2023-02-10T10:33:51;97441.13;;;-0.96;52.83
63019;BME280;49105;46.046;10.760;2023-02-10T10:36:23;97429.31;;;-0.83;53.02
63019;BME280;49105;46.046;10.760;2023-02-10T10:38:58;97421.75;;;-0.68;52.47
63019;BME280;49105;46.046;10.760;2023-02-10T10:41:27;97420.00;;;-0.59;52.22
63019;BME280;49105;46.046;10.760;2023-02-10T10:43:57;97416.28;;;-0.48;52.46
63019;BME280;49105;46.046;10.760;2023-02-10T10:46:34;97416.63;;;-0.43;52.18
63019;BME280;49105;46.046;10.760;2023-02-10T10:49:05;97419.06;;;-0.34;51.62
63019;BME280;49105;46.046;10.760;2023-02-10T10:51:30;97417.28;;;-0.25;51.57
63019;BME280;49105;46.046;10.760;2023-02-10T10:53:58;97403.66;;;-0.11;51.46
63019;BME280;49105;46.046;10.760;2023-02-10T10:57:03;97399.59;;;0.03;51.17
63019;BME280;49105;46.046;10.760;2023-02-10T10:59:40;97385.94;;;0.17;50.67
63019;BME280;49105;46.046;10.760;2023-02-10T11:02:18;97381.53;;;0.34;50.85
63019;BME280;49105;46.046;10.760;2023-02-10T11:04:43;97379.03;;;0.49;50.25
63019;BME280;49105;46.046;10.760;2023-02-10T11:07:12;97378.03;;;0.66;49.97
63019;BME280;49105;46.046;10.760;2023-02-10T11:09:49;97368.38;;;0.83;49.92
63019;BME280;49105;46.046;10.760;2023-02-10T11:12:20;97367.84;;;0.96;49.60
63019;BME280;49105;46.046;10.760;2023-02-10T11:14:49;97362.72;;;1.11;48.98
63019;BME280;49105;46.046;10.760;2023-02-10T11:17:39;97347.69;;;1.21;49.05
63019;BME280;49105;46.046;10.760;2023-02-10T11:22:36;97339.91;;;1.36;48.75
63019;BME280;49105;46.046;10.760;2023-02-10T11:25:22;97339.88;;;1.44;48.66
63019;BME280;49105;46.046;10.760;2023-02-10T11:27:50;97330.22;;;1.53;48.35
63019;BME280;49105;46.046;10.760;2023-02-10T11:32:54;97323.13;;;1.61;47.63
63019;BME280;49105;46.046;10.760;2023-02-10T11:35:21;97311.19;;;1.67;47.80
63019;BME280;49105;46.046;10.760;2023-02-10T11:37:56;97307.81;;;1.81;47.76
63019;BME280;49105;46.046;10.760;2023-02-10T11:40:27;97315.84;;;1.94;47.16
63019;BME280;49105;46.046;10.760;2023-02-10T11:42:56;97310.91;;;1.99;47.04
63019;BME280;49105;46.046;10.760;2023-02-10T11:45:28;97305.44;;;2.09;47.40
63019;BME280;49105;46.046;10.760;2023-02-10T11:48:04;97292.94;;;2.19;47.50
63019;BME280;49105;46.046;10.760;2023-02-10T11:50:34;97301.16;;;2.31;46.96
63019;BME280;49105;46.046;10.760;2023-02-10T11:53:00;97291.41;;;2.40;47.21
63019;BME280;49105;46.046;10.760;2023-02-10T11:55:37;97292.75;;;2.51;46.52
63019;BME280;49105;46.046;10.760;2023-02-10T11:58:27;97285.91;;;2.64;46.65
63019;BME280;49105;46.046;10.760;2023-02-10T12:17:33;97274.19;;;3.11;46.27
63019;BME280;49105;46.046;10.760;2023-02-10T12:20:26;97261.81;;;3.20;46.10
63019;BME280;49105;46.046;10.760;2023-02-10T12:25:34;97261.94;;;3.33;45.84
63019;BME280;49105;46.046;10.760;2023-02-10T12:35:58;97262.56;;;3.57;45.23
63019;BME280;49105;46.046;10.760;2023-02-10T12:38:43;97260.38;;;3.60;45.04
63019;BME280;49105;46.046;10.760;2023-02-10T12:46:59;97249.88;;;3.82;45.07
63019;BME280;49105;46.046;10.760;2023-02-10T12:52:14;97232.69;;;4.01;44.33
63019;BME280;49105;46.046;10.760;2023-02-10T12:55:13;97246.00;;;4.06;43.95
63019;BME280;49105;46.046;10.760;2023-02-10T13:02:48;97233.09;;;4.32;43.24
63019;BME280;49105;46.046;10.760;2023-02-10T13:05:23;97233.31;;;4.37;43.16
63019;BME280;49105;46.046;10.760;2023-02-10T13:08:01;97239.78;;;4.41;43.19
63019;BME280;49105;46.046;10.760;2023-02-10T13:13:03;97230.97;;;4.56;42.73
63019;BME280;49105;46.046;10.760;2023-02-10T13:15:34;97220.69;;;4.61;42.77
63019;BME280;49105;46.046;10.760;2023-02-10T13:18:02;97215.06;;;4.64;42.31
63019;BME280;49105;46.046;10.760;2023-02-10T13:21:02;97207.19;;;4.64;42.28
63019;BME280;49105;46.046;10.760;2023-02-10T13:23:48;97211.06;;;4.68;42.19
63019;BME280;49105;46.046;10.760;2023-02-10T13:26:48;97213.28;;;4.71;41.91
63019;BME280;49105;46.046;10.760;2023-02-10T13:34:23;97208.47;;;4.75;40.84
63019;BME280;49105;46.046;10.760;2023-02-10T13:39:59;97204.63;;;4.77;41.05
63019;BME280;49105;46.046;10.760;2023-02-10T13:42:38;97201.59;;;4.80;41.01
63019;BME280;49105;46.046;10.760;2023-02-10T13:47:38;97206.47;;;4.83;41.29
63019;BME280;49105;46.046;10.760;2023-02-10T13:53:00;97208.50;;;4.88;41.13
63019;BME280;49105;46.046;10.760;2023-02-10T13:55:46;97209.69;;;4.85;41.29
63019;BME280;49105;46.046;10.760;2023-02-10T14:00:52;97210.91;;;4.83;41.25
63019;BME280;49105;46.046;10.760;2023-02-10T14:03:30;97210.28;;;4.81;41.35
63019;BME280;49105;46.046;10.760;2023-02-10T14:06:07;97208.06;;;4.78;41.32
63019;BME280;49105;46.046;10.760;2023-02-10T14:08:42;97211.69;;;4.77;41.25
63019;BME280;49105;46.046;10.760;2023-02-10T14:13:41;97210.28;;;4.74;40.87
63019;BME280;49105;46.046;10.760;2023-02-10T14:16:36;97210.47;;;4.72;41.16
63019;BME280;49105;46.046;10.760;2023-02-10T14:19:17;97201.19;;;4.70;40.99
63019;BME280;49105;46.046;10.760;2023-02-10T14:21:45;97197.56;;;4.71;41.13
63019;BME280;49105;46.046;10.760;2023-02-10T14:24:18;97200.00;;;4.79;40.54
63019;BME280;49105;46.046;10.760;2023-02-10T14:26:49;97193.56;;;4.88;40.63
63019;BME280;49105;46.046;10.760;2023-02-10T14:29:17;97190.34;;;4.86;40.67
63019;BME280;49105;46.046;10.760;2023-02-10T14:31:45;97196.00;;;4.90;40.03
63019;BME280;49105;46.046;10.760;2023-02-10T14:34:33;97193.56;;;4.88;40.12
63019;BME280;49105;46.046;10.760;2023-02-10T14:37:00;97200.22;;;4.84;39.55
63019;BME280;49105;46.046;10.760;2023-02-10T14:39:28;97197.97;;;4.81;37.52
63019;BME280;49105;46.046;10.760;2023-02-10T14:41:54;97195.78;;;4.85;37.92
63019;BME280;49105;46.046;10.760;2023-02-10T14:44:29;97197.97;;;4.81;38.60
63019;BME280;49105;46.046;10.760;2023-02-10T14:46:56;97194.72;;;4.72;38.43
63019;BME280;49105;46.046;10.760;2023-02-10T14:49:22;97196.13;;;4.62;39.18
63019;BME280;49105;46.046;10.760;2023-02-10T14:51:51;97210.19;;;4.54;39.31